sensor_id;sensor_type;location;lat;lon;timestamp;P1;durP1;ratioP1;P2;durP2;ratioP2
26588;SDS011;14235;48.532;8.722;2023-09-30T00:01:21;7.68;;;4.78;;
26588;SDS011;14235;48.532;8.722;2023-09-30T00:03:47;9.30;;;4.30;;
26588;SDS011;14235;48.532;8.722;2023-09-30T00:06:13;7.07;;;4.60;;
26588;SDS011;14235;48.532;8.722;2023-09-30T00:08:38;5.65;;;4.35;;
26588;SDS011;14235;48.532;8.722;2023-09-30T00:11:06;7.45;;;4.30;;
26588;SDS011;14235;48.532;8.722;2023-09-30T00:13:32;7.50;;;4.00;;
26588;SDS011;14235;48.532;8.722;2023-09-30T00:15:58;6.50;;;4.45;;
26588;SDS011;14235;48.532;8.722;2023-09-30T00:18:24;6.85;;;4.15;;
26588;SDS011;14235;48.532;8.722;2023-09-30T00:20:49;6.68;;;4.72;;
26588;SDS011;14235;48.532;8.722;2023-09-30T00:23:15;5.97;;;4.15;;
26588;SDS011;14235;48.532;8.722;2023-09-30T00:25:41;6.55;;;4.10;;
26588;SDS011;14235;48.532;8.722;2023-09-30T00:28:07;6.32;;;4.13;;
26588;SDS011;14235;48.532;8.722;2023-09-30T00:30:33;6.35;;;4.00;;
26588;SDS011;14235;48.532;8.722;2023-09-30T00:32:59;7.75;;;4.20;;
26588;SDS011;14235;48.532;8.722;2023-09-30T00:35:25;10.30;;;4.75;;
26588;SDS011;14235;48.532;8.722;2023-09-30T00:37:50;5.53;;;4.03;;
26588;SDS011;14235;48.532;8.722;2023-09-30T00:40:16;6.43;;;4.13;;
26588;SDS011;14235;48.532;8.722;2023-09-30T00:42:42;4.50;;;3.38;;
26588;SDS011;14235;48.532;8.722;2023-09-30T00:45:08;5.90;;;4.00;;
26588;SDS011;14235;48.532;8.722;2023-09-30T00:47:35;7.10;;;4.20;;
26588;SDS011;14235;48.532;8.722;2023-09-30T00:50:01;9.57;;;3.95;;
26588;SDS011;14235;48.532;8.722;2023-09-30T00:52:29;5.72;;;3.80;;
26588;SDS011;14235;48.532;8.722;2023-09-30T00:54:58;9.30;;;4.32;;
26588;SDS011;14235;48.532;8.722;2023-09-30T00:57:24;9.40;;;4.43;;
26588;SDS011;14235;48.532;8.722;2023-09-30T00:59:51;7.38;;;4.07;;
26588;SDS011;14235;48.532;8.722;2023-09-30T01:02:20;7.38;;;4.07;;
26588;SDS011;14235;48.532;8.722;2023-09-30T01:04:48;7.32;;;4.13;;
26588;SDS011;14235;48.532;8.722;2023-09-30T01:07:14;8.65;;;4.28;;
26588;SDS011;14235;48.532;8.722;2023-09-30T01:09:39;5.97;;;4.07;;
26588;SDS011;14235;48.532;8.722;2023-09-30T01:12:05;7.50;;;4.40;;
26588;SDS011;14235;48.532;8.722;2023-09-30T01:14:33;5.32;;;3.50;;
26588;SDS011;14235;48.532;8.722;2023-09-30T01:16:59;6.55;;;3.95;;
26588;SDS011;14235;48.532;8.722;2023-09-30T01:19:26;7.07;;;4.15;;
26588;SDS011;14235;48.532;8.722;2023-09-30T01:21:55;6.35;;;4.28;;
26588;SDS011;14235;48.532;8.722;2023-09-30T01:24:30;7.50;;;4.38;;
26588;SDS011;14235;48.532;8.722;2023-09-30T01:27:03;7.88;;;3.70;;
26588;SDS011;14235;48.532;8.722;2023-09-30T01:29:28;6.97;;;4.30;;
26588;SDS011;14235;48.532;8.722;2023-09-30T01:34:39;6.50;;;4.18;;
26588;SDS011;14235;48.532;8.722;2023-09-30T01:37:04;7.03;;;3.95;;
26588;SDS011;14235;48.532;8.722;2023-09-30T01:39:31;6.85;;;3.97;;
26588;SDS011;14235;48.532;8.722;2023-09-30T01:41:57;5.85;;;3.92;;
26588;SDS011;14235;48.532;8.722;2023-09-30T01:44:23;5.55;;;3.72;;
26588;SDS011;14235;48.532;8.722;2023-09-30T01:46:48;7.43;;;3.80;;
26588;SDS011;14235;48.532;8.722;2023-09-30T01:49:14;5.22;;;3.67;;
26588;SDS011;14235;48.532;8.722;2023-09-30T01:51:39;6.43;;;3.80;;
26588;SDS011;14235;48.532;8.722;2023-09-30T01:54:05;5.85;;;3.85;;
26588;SDS011;14235;48.532;8.722;2023-09-30T01:56:31;7.00;;;4.03;;
26588;SDS011;14235;48.532;8.722;2023-09-30T01:58:56;6.25;;;4.00;;
26588;SDS011;14235;48.532;8.722;2023-09-30T02:01:22;6.93;;;4.05;;
26588;SDS011;14235;48.532;8.722;2023-09-30T02:03:48;5.72;;;3.75;;
26588;SDS011;14235;48.532;8.722;2023-09-30T02:06:14;6.63;;;3.92;;
26588;SDS011;14235;48.532;8.722;2023-09-30T02:08:40;9.32;;;4.28;;
26588;SDS011;14235;48.532;8.722;2023-09-30T02:11:05;6.47;;;3.90;;
26588;SDS011;14235;48.532;8.722;2023-09-30T02:13:33;7.20;;;4.05;;
26588;SDS011;14235;48.532;8.722;2023-09-30T02:16:00;7.15;;;4.00;;
26588;SDS011;14235;48.532;8.722;2023-09-30T02:18:26;6.82;;;3.85;;
26588;SDS011;14235;48.532;8.722;2023-09-30T02:20:52;6.78;;;4.28;;
26588;SDS011;14235;48.532;8.722;2023-09-30T02:23:18;7.45;;;4.00;;
26588;SDS011;14235;48.532;8.722;2023-09-30T02:25:44;6.53;;;3.97;;
26588;SDS011;14235;48.532;8.722;2023-09-30T02:28:10;6.82;;;4.25;;
26588;SDS011;14235;48.532;8.722;2023-09-30T02:30:36;7.05;;;4.07;;
26588;SDS011;14235;48.532;8.722;2023-09-30T02:33:02;6.65;;;3.90;;
26588;SDS011;14235;48.532;8.722;2023-09-30T02:35:28;7.45;;;4.35;;
26588;SDS011;14235;48.532;8.722;2023-09-30T02:37:54;8.85;;;4.00;;
26588;SDS011;14235;48.532;8.722;2023-09-30T02:40:19;6.97;;;3.90;;
26588;SDS011;14235;48.532;8.722;2023-09-30T02:42:45;6.85;;;3.60;;
26588;SDS011;14235;48.532;8.722;2023-09-30T02:45:12;8.15;;;4.03;;
26588;SDS011;14235;48.532;8.722;2023-09-30T02:47:38;7.45;;;4.05;;
26588;SDS011;14235;48.532;8.722;2023-09-30T02:50:05;6.68;;;3.85;;
26588;SDS011;14235;48.532;8.722;2023-09-30T02:52:33;5.88;;;4.05;;
26588;SDS011;14235;48.532;8.722;2023-09-30T02:54:58;6.43;;;3.72;;
26588;SDS011;14235;48.532;8.722;2023-09-30T02:57:24;6.18;;;4.00;;
26588;SDS011;14235;48.532;8.722;2023-09-30T02:59:52;8.55;;;4.40;;
26588;SDS011;14235;48.532;8.722;2023-09-30T03:02:19;6.50;;;4.05;;
26588;SDS011;14235;48.532;8.722;2023-09-30T03:04:46;6.03;;;4.00;;
26588;SDS011;14235;48.532;8.722;2023-09-30T03:07:13;6.85;;;3.60;;
26588;SDS011;14235;48.532;8.722;2023-09-30T03:09:38;8.13;;;4.13;;
26588;SDS011;14235;48.532;8.722;2023-09-30T03:12:04;6.40;;;3.53;;
26588;SDS011;14235;48.532;8.722;2023-09-30T03:14:30;9.80;;;3.60;;
26588;SDS011;14235;48.532;8.722;2023-09-30T03:16:56;7.97;;;3.85;;
26588;SDS011;14235;48.532;8.722;2023-09-30T03:19:23;8.75;;;4.30;;
26588;SDS011;14235;48.532;8.722;2023-09-30T03:21:49;6.32;;;3.83;;
26588;SDS011;14235;48.532;8.722;2023-09-30T03:24:15;5.85;;;3.38;;
26588;SDS011;14235;48.532;8.722;2023-09-30T03:26:40;7.88;;;4.00;;
26588;SDS011;14235;48.532;8.722;2023-09-30T03:29:06;6.85;;;3.83;;
26588;SDS011;14235;48.532;8.722;2023-09-30T03:31:34;7.03;;;3.67;;
26588;SDS011;14235;48.532;8.722;2023-09-30T03:34:00;7.32;;;4.05;;
26588;SDS011;14235;48.532;8.722;2023-09-30T03:36:26;6.35;;;3.50;;
26588;SDS011;14235;48.532;8.722;2023-09-30T03:38:52;7.05;;;4.07;;
26588;SDS011;14235;48.532;8.722;2023-09-30T03:41:21;5.75;;;3.78;;
26588;SDS011;14235;48.532;8.722;2023-09-30T03:43:47;7.13;;;3.90;;
26588;SDS011;14235;48.532;8.722;2023-09-30T03:46:14;6.85;;;3.70;;
26588;SDS011;14235;48.532;8.722;2023-09-30T03:48:40;7.22;;;3.97;;
26588;SDS011;14235;48.532;8.722;2023-09-30T03:51:13;5.78;;;3.85;;
26588;SDS011;14235;48.532;8.722;2023-09-30T03:53:46;7.90;;;4.05;;
26588;SDS011;14235;48.532;8.722;2023-09-30T03:56:11;6.45;;;3.75;;
26588;SDS011;14235;48.532;8.722;2023-09-30T03:58:38;5.05;;;3.67;;
26588;SDS011;14235;48.532;8.722;2023-09-30T04:01:05;5.80;;;3.70;;
26588;SDS011;14235;48.532;8.722;2023-09-30T04:03:30;6.78;;;4.32;;
26588;SDS011;14235;48.532;8.722;2023-09-30T04:06:01;5.70;;;3.78;;
26588;SDS011;14235;48.532;8.722;2023-09-30T04:08:27;7.15;;;3.75;;
26588;SDS011;14235;48.532;8.722;2023-09-30T04:10:53;5.20;;;3.40;;
26588;SDS011;14235;48.532;8.722;2023-09-30T04:13:19;6.65;;;3.70;;
26588;SDS011;14235;48.532;8.722;2023-09-30T04:15:46;6.20;;;3.53;;
26588;SDS011;14235;48.532;8.722;2023-09-30T04:18:12;6.68;;;4.10;;
26588;SDS011;14235;48.532;8.722;2023-09-30T04:20:37;6.85;;;3.58;;
26588;SDS011;14235;48.532;8.722;2023-09-30T04:23:05;6.50;;;3.90;;
26588;SDS011;14235;48.532;8.722;2023-09-30T04:25:32;6.95;;;3.53;;
26588;SDS011;14235;48.532;8.722;2023-09-30T04:27:57;6.60;;;3.78;;
26588;SDS011;14235;48.532;8.722;2023-09-30T04:30:23;7.50;;;3.78;;
26588;SDS011;14235;48.532;8.722;2023-09-30T04:32:49;7.78;;;4.07;;
26588;SDS011;14235;48.532;8.722;2023-09-30T04:35:14;5.65;;;3.85;;
26588;SDS011;14235;48.532;8.722;2023-09-30T04:37:40;7.53;;;3.50;;
26588;SDS011;14235;48.532;8.722;2023-09-30T04:40:07;5.28;;;3.85;;
26588;SDS011;14235;48.532;8.722;2023-09-30T04:42:45;6.90;;;4.68;;
26588;SDS011;14235;48.532;8.722;2023-09-30T04:45:11;6.47;;;3.90;;
26588;SDS011;14235;48.532;8.722;2023-09-30T04:47:38;6.07;;;3.85;;
26588;SDS011;14235;48.532;8.722;2023-09-30T04:50:06;6.07;;;3.67;;
26588;SDS011;14235;48.532;8.722;2023-09-30T04:52:33;7.60;;;4.00;;
26588;SDS011;14235;48.532;8.722;2023-09-30T04:55:02;5.90;;;3.45;;
26588;SDS011;14235;48.532;8.722;2023-09-30T04:57:31;6.53;;;3.72;;
26588;SDS011;14235;48.532;8.722;2023-09-30T04:59:56;8.20;;;3.70;;
26588;SDS011;14235;48.532;8.722;2023-09-30T05:02:23;6.45;;;3.90;;
26588;SDS011;14235;48.532;8.722;2023-09-30T05:04:49;5.13;;;3.70;;
26588;SDS011;14235;48.532;8.722;2023-09-30T05:07:14;6.85;;;3.92;;
26588;SDS011;14235;48.532;8.722;2023-09-30T05:09:40;6.80;;;3.80;;
26588;SDS011;14235;48.532;8.722;2023-09-30T05:12:07;6.80;;;3.58;;
26588;SDS011;14235;48.532;8.722;2023-09-30T05:14:35;6.65;;;3.70;;
26588;SDS011;14235;48.532;8.722;2023-09-30T05:17:01;5.85;;;3.08;;
26588;SDS011;14235;48.532;8.722;2023-09-30T05:19:29;5.75;;;3.58;;
26588;SDS011;14235;48.532;8.722;2023-09-30T05:21:56;5.15;;;3.65;;
26588;SDS011;14235;48.532;8.722;2023-09-30T05:24:22;6.45;;;3.58;;
26588;SDS011;14235;48.532;8.722;2023-09-30T05:26:48;6.82;;;3.60;;
26588;SDS011;14235;48.532;8.722;2023-09-30T05:29:14;5.00;;;3.60;;
26588;SDS011;14235;48.532;8.722;2023-09-30T05:31:39;5.75;;;3.58;;
26588;SDS011;14235;48.532;8.722;2023-09-30T05:34:05;5.95;;;4.05;;
26588;SDS011;14235;48.532;8.722;2023-09-30T05:36:31;5.57;;;3.72;;
26588;SDS011;14235;48.532;8.722;2023-09-30T05:38:56;6.95;;;3.92;;
26588;SDS011;14235;48.532;8.722;2023-09-30T05:41:22;9.13;;;3.92;;
26588;SDS011;14235;48.532;8.722;2023-09-30T05:43:48;5.43;;;3.90;;
26588;SDS011;14235;48.532;8.722;2023-09-30T05:46:14;6.75;;;3.97;;
26588;SDS011;14235;48.532;8.722;2023-09-30T05:48:40;10.07;;;4.20;;
26588;SDS011;14235;48.532;8.722;2023-09-30T05:51:06;5.88;;;3.80;;
26588;SDS011;14235;48.532;8.722;2023-09-30T05:53:32;5.40;;;3.67;;
26588;SDS011;14235;48.532;8.722;2023-09-30T05:55:58;5.63;;;3.47;;
26588;SDS011;14235;48.532;8.722;2023-09-30T05:58:24;6.28;;;3.78;;
26588;SDS011;14235;48.532;8.722;2023-09-30T06:00:51;5.90;;;3.30;;
26588;SDS011;14235;48.532;8.722;2023-09-30T06:03:18;5.63;;;3.72;;
26588;SDS011;14235;48.532;8.722;2023-09-30T06:05:44;4.47;;;3.60;;
26588;SDS011;14235;48.532;8.722;2023-09-30T06:08:09;4.95;;;3.63;;
26588;SDS011;14235;48.532;8.722;2023-09-30T06:10:39;5.53;;;3.38;;
26588;SDS011;14235;48.532;8.722;2023-09-30T06:13:07;6.78;;;3.42;;
26588;SDS011;14235;48.532;8.722;2023-09-30T06:15:33;5.80;;;3.15;;
26588;SDS011;14235;48.532;8.722;2023-09-30T06:18:02;6.85;;;4.03;;
26588;SDS011;14235;48.532;8.722;2023-09-30T06:20:29;6.63;;;3.33;;
26588;SDS011;14235;48.532;8.722;2023-09-30T06:22:55;5.28;;;3.47;;
26588;SDS011;14235;48.532;8.722;2023-09-30T06:25:21;6.88;;;3.67;;
26588;SDS011;14235;48.532;8.722;2023-09-30T06:27:49;4.55;;;3.47;;
26588;SDS011;14235;48.532;8.722;2023-09-30T06:30:15;6.65;;;3.63;;
26588;SDS011;14235;48.532;8.722;2023-09-30T06:32:42;5.35;;;3.20;;
26588;SDS011;14235;48.532;8.722;2023-09-30T06:35:08;5.70;;;3.30;;
26588;SDS011;14235;48.532;8.722;2023-09-30T06:37:37;4.75;;;3.35;;
26588;SDS011;14235;48.532;8.722;2023-09-30T06:40:04;6.68;;;3.70;;
26588;SDS011;14235;48.532;8.722;2023-09-30T06:42:32;6.88;;;4.00;;
26588;SDS011;14235;48.532;8.722;2023-09-30T06:44:59;4.40;;;3.42;;
26588;SDS011;14235;48.532;8.722;2023-09-30T06:47:24;6.20;;;3.40;;
26588;SDS011;14235;48.532;8.722;2023-09-30T06:49:50;4.68;;;3.70;;
26588;SDS011;14235;48.532;8.722;2023-09-30T06:52:16;6.40;;;3.65;;
26588;SDS011;14235;48.532;8.722;2023-09-30T06:54:42;6.97;;;3.80;;
26588;SDS011;14235;48.532;8.722;2023-09-30T06:57:07;6.07;;;4.15;;
26588;SDS011;14235;48.532;8.722;2023-09-30T06:59:34;5.50;;;4.20;;
26588;SDS011;14235;48.532;8.722;2023-09-30T07:02:00;5.70;;;3.90;;
26588;SDS011;14235;48.532;8.722;2023-09-30T07:04:25;7.90;;;4.55;;
26588;SDS011;14235;48.532;8.722;2023-09-30T07:06:52;5.70;;;4.07;;
26588;SDS011;14235;48.532;8.722;2023-09-30T07:09:18;7.63;;;4.03;;
26588;SDS011;14235;48.532;8.722;2023-09-30T07:11:45;7.78;;;4.13;;
26588;SDS011;14235;48.532;8.722;2023-09-30T07:14:10;5.68;;;3.90;;
26588;SDS011;14235;48.532;8.722;2023-09-30T07:16:36;5.85;;;3.47;;
26588;SDS011;14235;48.532;8.722;2023-09-30T07:19:02;4.63;;;3.38;;
26588;SDS011;14235;48.532;8.722;2023-09-30T07:21:28;5.43;;;3.83;;
26588;SDS011;14235;48.532;8.722;2023-09-30T07:23:53;6.57;;;3.65;;
26588;SDS011;14235;48.532;8.722;2023-09-30T07:26:25;4.95;;;3.47;;
26588;SDS011;14235;48.532;8.722;2023-09-30T07:28:52;5.85;;;3.45;;
26588;SDS011;14235;48.532;8.722;2023-09-30T07:31:19;6.53;;;3.58;;
26588;SDS011;14235;48.532;8.722;2023-09-30T07:33:45;5.63;;;3.65;;
26588;SDS011;14235;48.532;8.722;2023-09-30T07:36:10;5.35;;;3.58;;
26588;SDS011;14235;48.532;8.722;2023-09-30T07:38:38;7.22;;;3.50;;
26588;SDS011;14235;48.532;8.722;2023-09-30T07:41:03;5.60;;;3.65;;
26588;SDS011;14235;48.532;8.722;2023-09-30T07:43:30;4.82;;;3.10;;
26588;SDS011;14235;48.532;8.722;2023-09-30T07:46:03;4.70;;;3.63;;
26588;SDS011;14235;48.532;8.722;2023-09-30T07:49:19;4.55;;;3.28;;
26588;SDS011;14235;48.532;8.722;2023-09-30T07:51:45;4.78;;;3.58;;
26588;SDS011;14235;48.532;8.722;2023-09-30T07:54:13;7.18;;;3.85;;
26588;SDS011;14235;48.532;8.722;2023-09-30T07:56:39;6.68;;;4.25;;
26588;SDS011;14235;48.532;8.722;2023-09-30T07:59:05;5.47;;;3.70;;
26588;SDS011;14235;48.532;8.722;2023-09-30T08:01:31;5.20;;;3.50;;
26588;SDS011;14235;48.532;8.722;2023-09-30T08:03:56;4.85;;;3.85;;
26588;SDS011;14235;48.532;8.722;2023-09-30T08:06:22;6.50;;;4.00;;
26588;SDS011;14235;48.532;8.722;2023-09-30T08:08:48;4.32;;;3.55;;
26588;SDS011;14235;48.532;8.722;2023-09-30T08:11:14;5.60;;;3.33;;
26588;SDS011;14235;48.532;8.722;2023-09-30T08:13:40;5.10;;;3.47;;
26588;SDS011;14235;48.532;8.722;2023-09-30T08:16:05;4.05;;;3.65;;
26588;SDS011;14235;48.532;8.722;2023-09-30T08:18:32;6.05;;;4.25;;
26588;SDS011;14235;48.532;8.722;2023-09-30T08:20:57;5.65;;;4.25;;
26588;SDS011;14235;48.532;8.722;2023-09-30T08:23:23;5.28;;;3.67;;
26588;SDS011;14235;48.532;8.722;2023-09-30T08:25:49;5.70;;;3.45;;
26588;SDS011;14235;48.532;8.722;2023-09-30T08:28:14;7.90;;;4.00;;
26588;SDS011;14235;48.532;8.722;2023-09-30T08:30:41;4.32;;;3.50;;
26588;SDS011;14235;48.532;8.722;2023-09-30T08:33:07;3.80;;;3.45;;
26588;SDS011;14235;48.532;8.722;2023-09-30T08:35:38;6.55;;;4.22;;
26588;SDS011;14235;48.532;8.722;2023-09-30T08:38:04;7.82;;;4.18;;
26588;SDS011;14235;48.532;8.722;2023-09-30T08:40:30;5.68;;;4.10;;
26588;SDS011;14235;48.532;8.722;2023-09-30T08:42:56;5.82;;;3.95;;
26588;SDS011;14235;48.532;8.722;2023-09-30T08:45:22;4.80;;;3.50;;
26588;SDS011;14235;48.532;8.722;2023-09-30T08:47:49;5.63;;;4.28;;
26588;SDS011;14235;48.532;8.722;2023-09-30T08:50:15;5.95;;;4.20;;
26588;SDS011;14235;48.532;8.722;2023-09-30T08:52:42;6.05;;;4.40;;
26588;SDS011;14235;48.532;8.722;2023-09-30T08:55:10;5.65;;;4.28;;
26588;SDS011;14235;48.532;8.722;2023-09-30T08:57:37;5.05;;;4.07;;
26588;SDS011;14235;48.532;8.722;2023-09-30T09:00:05;6.43;;;4.80;;
26588;SDS011;14235;48.532;8.722;2023-09-30T09:02:34;6.55;;;4.30;;
26588;SDS011;14235;48.532;8.722;2023-09-30T09:05:00;6.53;;;4.70;;
26588;SDS011;14235;48.532;8.722;2023-09-30T09:07:27;4.90;;;4.40;;
26588;SDS011;14235;48.532;8.722;2023-09-30T09:12:54;5.93;;;4.43;;
26588;SDS011;14235;48.532;8.722;2023-09-30T09:15:23;7.55;;;4.93;;
26588;SDS011;14235;48.532;8.722;2023-09-30T09:17:51;7.70;;;4.35;;
26588;SDS011;14235;48.532;8.722;2023-09-30T09:20:20;6.47;;;4.40;;
26588;SDS011;14235;48.532;8.722;2023-09-30T09:22:48;6.32;;;4.75;;
26588;SDS011;14235;48.532;8.722;2023-09-30T09:25:19;5.80;;;4.47;;
26588;SDS011;14235;48.532;8.722;2023-09-30T09:27:48;9.32;;;4.00;;
26588;SDS011;14235;48.532;8.722;2023-09-30T09:30:15;6.07;;;4.55;;
26588;SDS011;14235;48.532;8.722;2023-09-30T09:33:04;6.40;;;4.90;;
26588;SDS011;14235;48.532;8.722;2023-09-30T09:35:31;6.63;;;4.50;;
26588;SDS011;14235;48.532;8.722;2023-09-30T09:38:02;7.88;;;4.47;;
26588;SDS011;14235;48.532;8.722;2023-09-30T09:40:30;8.73;;;4.95;;
26588;SDS011;14235;48.532;8.722;2023-09-30T09:43:00;9.70;;;4.38;;
26588;SDS011;14235;48.532;8.722;2023-09-30T09:45:29;8.32;;;5.13;;
26588;SDS011;14235;48.532;8.722;2023-09-30T09:47:58;7.28;;;4.63;;
26588;SDS011;14235;48.532;8.722;2023-09-30T09:50:24;6.38;;;4.43;;
26588;SDS011;14235;48.532;8.722;2023-09-30T09:52:50;7.68;;;5.07;;
26588;SDS011;14235;48.532;8.722;2023-09-30T09:55:26;6.38;;;4.60;;
26588;SDS011;14235;48.532;8.722;2023-09-30T09:57:52;7.63;;;5.07;;
26588;SDS011;14235;48.532;8.722;2023-09-30T10:00:20;7.45;;;4.55;;
26588;SDS011;14235;48.532;8.722;2023-09-30T10:02:48;7.05;;;4.95;;
26588;SDS011;14235;48.532;8.722;2023-09-30T10:05:15;8.82;;;4.93;;
26588;SDS011;14235;48.532;8.722;2023-09-30T10:08:00;8.75;;;5.13;;
26588;SDS011;14235;48.532;8.722;2023-09-30T10:10:39;5.88;;;4.55;;
26588;SDS011;14235;48.532;8.722;2023-09-30T10:13:05;7.57;;;4.85;;
26588;SDS011;14235;48.532;8.722;2023-09-30T10:18:00;8.13;;;5.10;;
26588;SDS011;14235;48.532;8.722;2023-09-30T10:20:32;7.78;;;5.03;;
26588;SDS011;14235;48.532;8.722;2023-09-30T10:25:45;9.80;;;5.32;;
26588;SDS011;14235;48.532;8.722;2023-09-30T10:28:33;8.88;;;5.38;;
26588;SDS011;14235;48.532;8.722;2023-09-30T10:31:11;8.77;;;5.32;;
26588;SDS011;14235;48.532;8.722;2023-09-30T10:36:31;9.77;;;5.55;;
26588;SDS011;14235;48.532;8.722;2023-09-30T10:39:05;10.20;;;5.97;;
26588;SDS011;14235;48.532;8.722;2023-09-30T10:44:39;8.43;;;5.38;;
26588;SDS011;14235;48.532;8.722;2023-09-30T10:47:00;7.45;;;5.53;;
26588;SDS011;14235;48.532;8.722;2023-09-30T10:49:46;8.20;;;5.65;;
26588;SDS011;14235;48.532;8.722;2023-09-30T10:52:12;8.52;;;5.78;;
26588;SDS011;14235;48.532;8.722;2023-09-30T10:54:49;7.68;;;5.55;;
26588;SDS011;14235;48.532;8.722;2023-09-30T10:57:26;10.07;;;5.28;;
26588;SDS011;14235;48.532;8.722;2023-09-30T11:00:08;8.55;;;5.65;;
26588;SDS011;14235;48.532;8.722;2023-09-30T11:02:49;8.00;;;5.43;;
26588;SDS011;14235;48.532;8.722;2023-09-30T11:05:16;7.13;;;5.22;;
26588;SDS011;14235;48.532;8.722;2023-09-30T11:07:42;9.85;;;6.03;;
26588;SDS011;14235;48.532;8.722;2023-09-30T11:10:11;9.95;;;6.07;;
26588;SDS011;14235;48.532;8.722;2023-09-30T11:12:52;6.15;;;5.00;;
26588;SDS011;14235;48.532;8.722;2023-09-30T11:15:19;10.10;;;5.90;;
26588;SDS011;14235;48.532;8.722;2023-09-30T11:17:45;8.65;;;5.43;;
26588;SDS011;14235;48.532;8.722;2023-09-30T11:20:10;8.05;;;5.43;;
26588;SDS011;14235;48.532;8.722;2023-09-30T11:22:36;9.55;;;5.95;;
26588;SDS011;14235;48.532;8.722;2023-09-30T11:25:04;10.35;;;5.80;;
26588;SDS011;14235;48.532;8.722;2023-09-30T11:27:30;7.60;;;5.05;;
26588;SDS011;14235;48.532;8.722;2023-09-30T11:29:56;9.02;;;5.85;;
26588;SDS011;14235;48.532;8.722;2023-09-30T11:32:27;7.38;;;5.25;;
26588;SDS011;14235;48.532;8.722;2023-09-30T11:34:53;8.25;;;5.80;;
26588;SDS011;14235;48.532;8.722;2023-09-30T11:37:19;9.60;;;5.97;;
26588;SDS011;14235;48.532;8.722;2023-09-30T11:39:46;9.45;;;5.57;;
26588;SDS011;14235;48.532;8.722;2023-09-30T11:42:16;8.55;;;5.20;;
26588;SDS011;14235;48.532;8.722;2023-09-30T11:44:48;9.48;;;5.72;;
26588;SDS011;14235;48.532;8.722;2023-09-30T11:47:15;11.30;;;5.60;;
26588;SDS011;14235;48.532;8.722;2023-09-30T11:49:42;8.40;;;5.38;;
26588;SDS011;14235;48.532;8.722;2023-09-30T11:52:13;10.00;;;5.93;;
26588;SDS011;14235;48.532;8.722;2023-09-30T11:57:08;8.85;;;5.88;;
26588;SDS011;14235;48.532;8.722;2023-09-30T11:59:40;9.20;;;5.85;;
26588;SDS011;14235;48.532;8.722;2023-09-30T12:02:06;9.55;;;6.15;;
26588;SDS011;14235;48.532;8.722;2023-09-30T12:04:36;8.63;;;5.68;;
26588;SDS011;14235;48.532;8.722;2023-09-30T12:07:03;7.93;;;5.57;;
26588;SDS011;14235;48.532;8.722;2023-09-30T12:09:29;7.80;;;5.40;;
26588;SDS011;14235;48.532;8.722;2023-09-30T12:11:56;7.10;;;5.13;;
26588;SDS011;14235;48.532;8.722;2023-09-30T12:14:23;8.02;;;5.38;;
26588;SDS011;14235;48.532;8.722;2023-09-30T12:16:49;9.70;;;5.70;;
26588;SDS011;14235;48.532;8.722;2023-09-30T12:19:18;9.65;;;5.82;;
26588;SDS011;14235;48.532;8.722;2023-09-30T12:21:45;9.10;;;6.10;;
26588;SDS011;14235;48.532;8.722;2023-09-30T12:24:13;9.38;;;5.78;;
26588;SDS011;14235;48.532;8.722;2023-09-30T12:26:47;8.35;;;6.00;;
26588;SDS011;14235;48.532;8.722;2023-09-30T12:29:17;10.20;;;5.63;;
26588;SDS011;14235;48.532;8.722;2023-09-30T12:31:46;8.93;;;5.43;;
26588;SDS011;14235;48.532;8.722;2023-09-30T12:34:13;7.50;;;5.38;;
26588;SDS011;14235;48.532;8.722;2023-09-30T12:36:39;8.07;;;5.47;;
26588;SDS011;14235;48.532;8.722;2023-09-30T12:39:06;10.13;;;5.82;;
26588;SDS011;14235;48.532;8.722;2023-09-30T12:41:39;8.60;;;5.30;;
26588;SDS011;14235;48.532;8.722;2023-09-30T12:44:08;10.32;;;5.47;;
26588;SDS011;14235;48.532;8.722;2023-09-30T12:46:35;6.95;;;5.28;;
26588;SDS011;14235;48.532;8.722;2023-09-30T12:49:11;9.35;;;5.95;;
26588;SDS011;14235;48.532;8.722;2023-09-30T12:51:37;8.00;;;5.32;;
26588;SDS011;14235;48.532;8.722;2023-09-30T12:54:03;9.32;;;6.30;;
26588;SDS011;14235;48.532;8.722;2023-09-30T12:56:29;6.45;;;5.15;;
26588;SDS011;14235;48.532;8.722;2023-09-30T12:58:56;9.32;;;6.07;;
26588;SDS011;14235;48.532;8.722;2023-09-30T13:01:22;9.43;;;5.95;;
26588;SDS011;14235;48.532;8.722;2023-09-30T13:03:47;8.77;;;5.57;;
26588;SDS011;14235;48.532;8.722;2023-09-30T13:06:13;7.93;;;5.20;;
26588;SDS011;14235;48.532;8.722;2023-09-30T13:08:41;8.48;;;5.65;;
26588;SDS011;14235;48.532;8.722;2023-09-30T13:11:07;8.75;;;5.95;;
26588;SDS011;14235;48.532;8.722;2023-09-30T13:13:33;8.85;;;5.70;;
26588;SDS011;14235;48.532;8.722;2023-09-30T13:16:00;11.40;;;6.30;;
26588;SDS011;14235;48.532;8.722;2023-09-30T13:18:27;7.80;;;5.07;;
26588;SDS011;14235;48.532;8.722;2023-09-30T13:20:53;9.60;;;5.60;;
26588;SDS011;14235;48.532;8.722;2023-09-30T13:23:19;9.98;;;6.05;;
26588;SDS011;14235;48.532;8.722;2023-09-30T13:25:45;7.75;;;6.00;;
26588;SDS011;14235;48.532;8.722;2023-09-30T13:28:10;8.38;;;6.03;;
26588;SDS011;14235;48.532;8.722;2023-09-30T13:30:36;8.82;;;5.75;;
26588;SDS011;14235;48.532;8.722;2023-09-30T13:33:02;9.93;;;6.18;;
26588;SDS011;14235;48.532;8.722;2023-09-30T13:35:49;8.80;;;6.15;;
26588;SDS011;14235;48.532;8.722;2023-09-30T13:38:14;8.45;;;5.93;;
26588;SDS011;14235;48.532;8.722;2023-09-30T13:40:41;7.78;;;5.88;;
26588;SDS011;14235;48.532;8.722;2023-09-30T13:43:06;8.23;;;6.07;;
26588;SDS011;14235;48.532;8.722;2023-09-30T13:45:32;7.68;;;5.93;;
26588;SDS011;14235;48.532;8.722;2023-09-30T13:47:59;8.57;;;5.40;;
26588;SDS011;14235;48.532;8.722;2023-09-30T13:50:25;9.55;;;5.80;;
26588;SDS011;14235;48.532;8.722;2023-09-30T13:52:50;9.43;;;5.65;;
26588;SDS011;14235;48.532;8.722;2023-09-30T13:55:16;8.32;;;5.95;;
26588;SDS011;14235;48.532;8.722;2023-09-30T13:57:47;7.35;;;5.40;;
26588;SDS011;14235;48.532;8.722;2023-09-30T14:00:13;7.97;;;5.47;;
26588;SDS011;14235;48.532;8.722;2023-09-30T14:02:41;7.88;;;5.55;;
26588;SDS011;14235;48.532;8.722;2023-09-30T14:05:08;7.75;;;5.72;;
26588;SDS011;14235;48.532;8.722;2023-09-30T14:07:34;8.00;;;5.53;;
26588;SDS011;14235;48.532;8.722;2023-09-30T14:10:00;8.75;;;5.80;;
26588;SDS011;14235;48.532;8.722;2023-09-30T14:12:26;10.02;;;6.00;;
26588;SDS011;14235;48.532;8.722;2023-09-30T14:14:52;8.07;;;5.53;;
26588;SDS011;14235;48.532;8.722;2023-09-30T14:17:18;8.25;;;5.95;;
26588;SDS011;14235;48.532;8.722;2023-09-30T14:19:43;7.55;;;5.32;;
26588;SDS011;14235;48.532;8.722;2023-09-30T14:22:09;8.82;;;6.07;;
26588;SDS011;14235;48.532;8.722;2023-09-30T14:24:35;8.60;;;5.70;;
26588;SDS011;14235;48.532;8.722;2023-09-30T14:27:04;7.30;;;5.05;;
26588;SDS011;14235;48.532;8.722;2023-09-30T14:29:30;12.13;;;6.15;;
26588;SDS011;14235;48.532;8.722;2023-09-30T14:31:56;9.77;;;5.95;;
26588;SDS011;14235;48.532;8.722;2023-09-30T14:34:22;7.38;;;5.10;;
26588;SDS011;14235;48.532;8.722;2023-09-30T14:36:48;8.70;;;5.35;;
26588;SDS011;14235;48.532;8.722;2023-09-30T14:39:14;9.75;;;5.75;;
26588;SDS011;14235;48.532;8.722;2023-09-30T14:41:41;7.95;;;5.63;;
26588;SDS011;14235;48.532;8.722;2023-09-30T14:44:10;8.80;;;5.80;;
26588;SDS011;14235;48.532;8.722;2023-09-30T14:46:37;7.60;;;5.70;;
26588;SDS011;14235;48.532;8.722;2023-09-30T14:49:06;7.30;;;5.72;;
26588;SDS011;14235;48.532;8.722;2023-09-30T14:51:31;8.18;;;5.38;;
26588;SDS011;14235;48.532;8.722;2023-09-30T14:53:58;9.55;;;6.05;;
26588;SDS011;14235;48.532;8.722;2023-09-30T14:56:23;6.38;;;5.07;;
26588;SDS011;14235;48.532;8.722;2023-09-30T14:58:49;7.70;;;5.45;;
26588;SDS011;14235;48.532;8.722;2023-09-30T15:01:14;8.90;;;5.30;;
26588;SDS011;14235;48.532;8.722;2023-09-30T15:03:40;8.77;;;5.28;;
26588;SDS011;14235;48.532;8.722;2023-09-30T15:06:06;7.35;;;4.95;;
26588;SDS011;14235;48.532;8.722;2023-09-30T15:08:32;7.82;;;5.45;;